createdAt,value
2018-09-09T18:05:18.967Z,18.40
2018-09-09T18:07:49.187Z,18.70
2018-09-09T18:10:20.203Z,19.00
2018-09-09T18:12:51.189Z,19.30
2018-09-09T18:15:21.717Z,19.60
2018-09-09T18:17:51.830Z,19.80
2018-09-09T18:20:22.306Z,19.90
2018-09-09T18:22:53.246Z,20.00
2018-09-09T18:25:24.158Z,20.10
2018-09-09T18:27:55.019Z,20.10
2018-09-09T18:30:25.810Z,20.20
2018-09-09T18:32:56.028Z,20.20
2018-09-09T18:35:26.797Z,20.20
2018-09-09T18:37:57.664Z,20.10
2018-09-09T18:40:27.986Z,20.10
2018-09-09T18:42:58.926Z,20.10
2018-09-09T18:45:30.304Z,20.10
2018-09-09T18:48:00.375Z,20.10
2018-09-09T18:50:30.612Z,20.10
2018-09-09T18:53:00.788Z,20.10
2018-09-09T18:55:31.423Z,20.10
2018-09-09T18:58:02.826Z,20.10
2018-09-09T19:00:33.590Z,20.10
2018-09-09T19:03:04.124Z,20.20
2018-09-09T19:05:34.557Z,20.20
2018-09-09T19:08:04.975Z,20.30
2018-09-09T19:10:35.506Z,20.30
2018-09-09T19:13:06.253Z,20.30
2018-09-09T19:15:36.395Z,20.20
2018-09-09T19:18:06.799Z,20.00
2018-09-09T19:20:37.762Z,19.90
2018-09-09T19:23:08.082Z,19.80
2018-09-09T19:25:40.103Z,19.70
2018-09-09T19:28:11.222Z,19.60
2018-09-09T19:30:41.185Z,19.70
2018-09-09T19:33:11.500Z,19.50
2018-09-09T19:35:41.688Z,19.40
2018-09-09T19:38:11.984Z,19.30
2018-09-09T19:40:43.028Z,19.20
2018-09-09T19:43:13.269Z,19.10
2018-09-09T19:45:43.570Z,19.10
2018-09-09T19:48:13.647Z,18.90
2018-09-09T19:50:46.969Z,18.90
2018-09-09T19:53:18.129Z,18.80
2018-09-09T19:55:48.289Z,18.70
2018-09-09T19:58:18.227Z,18.60
2018-09-09T20:00:49.542Z,18.70
2018-09-09T20:03:19.553Z,18.60
2018-09-09T20:05:49.759Z,18.60
2018-09-09T20:08:19.752Z,18.50
2018-09-09T20:10:50.204Z,18.50
2018-09-09T20:13:20.123Z,18.40
2018-09-09T20:15:50.191Z,18.40
2018-09-09T20:18:20.798Z,18.30
2018-09-09T20:20:50.989Z,18.30
2018-09-09T20:23:27.892Z,18.20
2018-09-09T20:25:58.209Z,18.20
2018-09-09T20:28:28.504Z,18.20
2018-09-09T20:30:58.736Z,18.10
2018-09-09T20:33:29.305Z,18.10
2018-09-09T20:35:59.541Z,18.00
2018-09-09T20:38:29.805Z,18.00
2018-09-09T20:41:00.061Z,17.90
2018-09-09T20:43:30.320Z,17.80
2018-09-09T20:46:00.408Z,17.80
2018-09-09T20:48:30.791Z,17.70
2018-09-09T20:51:01.021Z,17.70
2018-09-09T20:53:31.272Z,17.70
2018-09-09T20:56:02.830Z,17.60
2018-09-09T20:58:32.852Z,17.60
2018-09-09T21:01:02.992Z,17.50
2018-09-09T21:03:33.506Z,17.50
2018-09-09T21:06:03.843Z,17.40
2018-09-09T21:08:34.144Z,17.40
2018-09-09T21:11:04.225Z,17.30
2018-09-09T21:13:35.364Z,17.30
2018-09-09T21:16:05.629Z,17.30
2018-09-09T21:18:35.791Z,17.20
2018-09-09T21:21:06.687Z,17.20
2018-09-09T21:23:36.816Z,17.10
2018-09-09T21:26:07.564Z,17.10
2018-09-09T21:28:37.919Z,17.00
2018-09-09T21:31:08.088Z,17.00
2018-09-09T21:33:38.375Z,16.90
2018-09-09T21:36:08.898Z,16.90
2018-09-09T21:38:39.694Z,16.80
2018-09-09T21:41:10.042Z,16.80
2018-09-09T21:43:40.197Z,16.80
2018-09-09T21:46:10.566Z,16.70
2018-09-09T21:48:40.642Z,16.70
2018-09-09T21:51:10.810Z,16.70
2018-09-09T21:53:45.666Z,16.60
2018-09-09T21:56:15.903Z,16.60
2018-09-09T21:58:47.189Z,16.60
2018-09-09T22:01:22.747Z,16.50
2018-09-09T22:03:57.803Z,16.50
2018-09-09T22:06:28.405Z,16.40
2018-09-09T22:08:58.920Z,16.40
2018-09-09T22:11:30.494Z,16.40
2018-09-09T22:14:00.711Z,16.40
2018-09-09T22:16:31.216Z,16.30
2018-09-09T22:19:01.378Z,16.30
2018-09-09T22:21:31.480Z,16.30
2018-09-09T22:24:01.654Z,16.30
2018-09-09T22:26:31.828Z,16.30
2018-09-09T22:29:02.085Z,16.30
2018-09-09T22:31:33.413Z,16.40
2018-09-09T22:34:03.758Z,16.40
2018-09-09T22:36:34.254Z,16.30
2018-09-09T22:39:06.138Z,16.40
2018-09-09T22:41:38.317Z,16.30
2018-09-09T22:44:11.756Z,16.30
2018-09-09T22:46:43.222Z,16.40
2018-09-09T22:49:13.392Z,16.40
2018-09-09T22:51:43.641Z,16.40
2018-09-09T22:54:13.871Z,16.40
2018-09-09T22:56:44.059Z,16.40
2018-09-09T22:59:15.360Z,16.40
2018-09-09T23:01:45.657Z,16.40
2018-09-09T23:04:16.764Z,16.40
2018-09-09T23:06:47.093Z,16.50
2018-09-09T23:09:17.201Z,16.40
2018-09-09T23:11:47.195Z,16.40
2018-09-09T23:14:18.112Z,16.50
2018-09-09T23:16:48.732Z,16.50
2018-09-09T23:19:20.343Z,16.50
2018-09-09T23:21:50.785Z,16.50
2018-09-09T23:24:21.294Z,16.50
2018-09-09T23:26:51.341Z,16.40
2018-09-09T23:29:28.151Z,16.50
2018-09-09T23:31:58.199Z,16.50
2018-09-09T23:34:28.468Z,16.40
2018-09-09T23:36:58.627Z,16.40
2018-09-09T23:39:29.053Z,16.40
2018-09-09T23:41:58.971Z,16.40
2018-09-09T23:44:32.192Z,16.40
2018-09-09T23:47:02.285Z,16.40
2018-09-09T23:49:32.499Z,16.40
2018-09-09T23:52:03.141Z,16.40
2018-09-09T23:54:34.426Z,16.40
2018-09-09T23:57:04.653Z,16.40
2018-09-09T23:59:35.116Z,16.40
